Nordlys — YJTS2 — position and weather

sailwx.info

Track history (hours):
 
Tides and Currents Weather Stations Pressure Air Temp Water Temp Dewpoint Dewpoint Depression Visibility Wind Speed Wind Dir Waves Ship Positions

Nordlys

Ship's website: http://fairtransport.eu/category/nordlys/

Last reported at 2018-Aug-14 00:06 UTC. Time now 2018-Aug-14 07:05 UTC.
Position N 54°35' E 012°29'.

Length 20 m; draft 2.7 m.

MMSI: 577228000.

Date/timePositionNaut miles runAvg speedWind from/ knotsBaromVisibWave heightAir tempDewpointWater temp
2018-Aug-14 00:06N 54°35' E 012°29'1 1.8
2018-Aug-13 23:46N 54°35' E 012°29'0 1.8
2018-Aug-13 23:30N 54°34' E 012°28'3 1.6
2018-Aug-13 21:45N 54°32' E 012°26'0 1.8
2018-Aug-13 21:30N 54°31' E 012°26'1 1.7
2018-Aug-13 21:00N 54°31' E 012°25'3 1.6
2018-Aug-13 19:14N 54°28' E 012°24'0 1.5
2018-Aug-13 19:00N 54°28' E 012°24'1 2.4
2018-Aug-13 18:30N 54°26' E 012°23'2 4.4
2018-Aug-13 18:00N 54°24' E 012°22'2 3.8
2018-Aug-13 17:24N 54°23' E 012°19'7 5.4
2018-Aug-13 16:09N 54°23' E 012°07'1 4.7
2018-Aug-13 16:00N 54°22' E 012°07'3 5.2
2018-Aug-13 15:30N 54°19' E 012°06'3 5.7
2018-Aug-13 15:00N 54°17' E 012°07'2 4.5
2018-Aug-13 14:29N 54°14' E 012°08'1 2.8
2018-Aug-13 14:00N 54°13' E 012°07'1 2.0
2018-Aug-13 13:30N 54°12' E 012°06'2 3.1
2018-Aug-13 13:00N 54°11' E 012°06'3 5.4
2018-Aug-13 12:23N 54°07' E 012°06'  
2018-Aug-06 11:51N 54°06' E 012°07'0 0.5
2018-Aug-06 11:30N 54°06' E 012°07'2 4.9
2018-Aug-06 11:00N 54°08' E 012°06'2 4.7
2018-Aug-06 10:30N 54°10' E 012°06'1 2.4
2018-Aug-06 10:00N 54°12' E 012°05'1 2.3
2018-Aug-06 09:30N 54°12' E 012°03'1 0.9
2018-Aug-06 08:56N 54°12' E 012°02'0 0.1
2018-Aug-06 07:15N 54°12' E 012°02'0 0.0
2018-Aug-06 06:57N 54°12' E 012°02'0 0.0
2018-Aug-06 06:28N 54°12' E 012°02'0 0.0
2018-Aug-06 05:53N 54°12' E 012°02'0 0.0
2018-Aug-06 05:30N 54°12' E 012°02'0 0.0
2018-Aug-06 05:00N 54°12' E 012°02'0 0.0
2018-Aug-06 04:30N 54°12' E 012°02'0 0.0
2018-Aug-06 02:27N 54°12' E 012°02'0 0.0
2018-Aug-06 02:00N 54°12' E 012°02'0 0.0
2018-Aug-06 01:30N 54°12' E 012°02'0 0.0
2018-Aug-06 01:00N 54°12' E 012°02'0 0.0
2018-Aug-05 22:59N 54°12' E 012°02'0 0.0
2018-Aug-05 22:30N 54°12' E 012°02'0 0.0
2018-Aug-05 22:00N 54°12' E 012°02'0 0.0
2018-Aug-05 21:30N 54°12' E 012°02'0 0.0
2018-Aug-05 21:00N 54°12' E 012°02'0 0.0
2018-Aug-05 20:27N 54°12' E 012°02'0 0.0
2018-Aug-05 19:59N 54°12' E 012°02'0 0.0
2018-Aug-05 19:30N 54°12' E 012°02'0 0.0
2018-Aug-05 18:00N 54°12' E 012°02'0 0.1
2018-Aug-05 17:29N 54°12' E 012°02'0 0.1
2018-Aug-05 17:00N 54°12' E 012°02'0 0.1
2018-Aug-05 15:45N 54°12' E 012°02'0 0.0
2018-Aug-05 15:30N 54°12' E 012°02'0 0.0
2018-Aug-05 15:00N 54°12' E 012°02'0 0.0
2018-Aug-05 14:00N 54°12' E 012°02'0 0.0
2018-Aug-05 13:30N 54°12' E 012°02'0 0.0
2018-Aug-05 13:00N 54°12' E 012°02'0 0.0
2018-Aug-05 12:30N 54°12' E 012°02'0 0.1
2018-Aug-05 12:00N 54°12' E 012°02'0 0.0
2018-Aug-05 11:30N 54°12' E 012°02'0 0.2
2018-Aug-05 10:13N 54°13' E 012°02'1 2.8
2018-Aug-05 10:00N 54°13' E 012°02'2 4.8
2018-Aug-05 09:30N 54°16' E 012°01'3 5.5
2018-Aug-05 09:00N 54°18' E 011°60'2 4.2
2018-Aug-05 08:30N 54°19' E 011°57'25 5.9
2018-Aug-05 04:19N 54°30' E 011°18'2 6.7
2018-Aug-05 03:59N 54°31' E 011°15'3 6.3
2018-Aug-05 03:30N 54°32' E 011°10'3 7.2
2018-Aug-05 03:00N 54°33' E 011°04'3 6.0
2018-Aug-05 02:30N 54°36' E 011°02'3 6.4
2018-Aug-05 02:00N 54°39' E 011°00'4 7.3
2018-Aug-05 01:31N 54°42' E 010°58'3 6.6
2018-Aug-05 01:00N 54°45' E 010°56'3 6.5
2018-Aug-05 00:30N 54°48' E 010°54'3 6.6
2018-Aug-05 00:01N 54°51' E 010°54'4 7.7
2018-Aug-04 23:30N 54°55' E 010°54'  
Track history (hours):
 
Tides and Currents Weather Stations Pressure Air Temp Water Temp Dewpoint Dewpoint Depression Visibility Wind Speed Wind Dir Waves Ship Positions

Nordlys

Ship's website: http://fairtransport.eu/category/nordlys/

Last reported at 2018-Aug-14 00:06 UTC. Time now 2018-Aug-14 07:05 UTC.
Position N 54°35' E 012°29'.

Length 20 m; draft 2.7 m.

MMSI: 577228000.

Date/timePositionNaut miles runAvg speedWind from/ knotsBaromVisibWave heightAir tempDewpointWater temp
2018-Aug-14 00:06N 54°35' E 012°29'1 1.8
2018-Aug-13 23:46N 54°35' E 012°29'0 1.8
2018-Aug-13 23:30N 54°34' E 012°28'3 1.6
2018-Aug-13 21:45N 54°32' E 012°26'0 1.8
2018-Aug-13 21:30N 54°31' E 012°26'1 1.7
2018-Aug-13 21:00N 54°31' E 012°25'3 1.6
2018-Aug-13 19:14N 54°28' E 012°24'0 1.5
2018-Aug-13 19:00N 54°28' E 012°24'1 2.4
2018-Aug-13 18:30N 54°26' E 012°23'2 4.4
2018-Aug-13 18:00N 54°24' E 012°22'2 3.8
2018-Aug-13 17:24N 54°23' E 012°19'7 5.4
2018-Aug-13 16:09N 54°23' E 012°07'1 4.7
2018-Aug-13 16:00N 54°22' E 012°07'3 5.2
2018-Aug-13 15:30N 54°19' E 012°06'3 5.7
2018-Aug-13 15:00N 54°17' E 012°07'2 4.5
2018-Aug-13 14:29N 54°14' E 012°08'1 2.8
2018-Aug-13 14:00N 54°13' E 012°07'1 2.0
2018-Aug-13 13:30N 54°12' E 012°06'2 3.1
2018-Aug-13 13:00N 54°11' E 012°06'3 5.4
2018-Aug-13 12:23N 54°07' E 012°06'  
2018-Aug-06 11:51N 54°06' E 012°07'0 0.5
2018-Aug-06 11:30N 54°06' E 012°07'2 4.9
2018-Aug-06 11:00N 54°08' E 012°06'2 4.7
2018-Aug-06 10:30N 54°10' E 012°06'1 2.4
2018-Aug-06 10:00N 54°12' E 012°05'1 2.3
2018-Aug-06 09:30N 54°12' E 012°03'1 0.9
2018-Aug-06 08:56N 54°12' E 012°02'0 0.1
2018-Aug-06 07:15N 54°12' E 012°02'0 0.0
2018-Aug-06 06:57N 54°12' E 012°02'0 0.0
2018-Aug-06 06:28N 54°12' E 012°02'0 0.0
2018-Aug-06 05:53N 54°12' E 012°02'0 0.0
2018-Aug-06 05:30N 54°12' E 012°02'0 0.0
2018-Aug-06 05:00N 54°12' E 012°02'0 0.0
2018-Aug-06 04:30N 54°12' E 012°02'0 0.0
2018-Aug-06 02:27N 54°12' E 012°02'0 0.0
2018-Aug-06 02:00N 54°12' E 012°02'0 0.0
2018-Aug-06 01:30N 54°12' E 012°02'0 0.0
2018-Aug-06 01:00N 54°12' E 012°02'0 0.0
2018-Aug-05 22:59N 54°12' E 012°02'0 0.0
2018-Aug-05 22:30N 54°12' E 012°02'0 0.0
2018-Aug-05 22:00N 54°12' E 012°02'0 0.0
2018-Aug-05 21:30N 54°12' E 012°02'0 0.0
2018-Aug-05 21:00N 54°12' E 012°02'0 0.0
2018-Aug-05 20:27N 54°12' E 012°02'0 0.0
2018-Aug-05 19:59N 54°12' E 012°02'0 0.0
2018-Aug-05 19:30N 54°12' E 012°02'0 0.0
2018-Aug-05 18:00N 54°12' E 012°02'0 0.1
2018-Aug-05 17:29N 54°12' E 012°02'0 0.1
2018-Aug-05 17:00N 54°12' E 012°02'0 0.1
2018-Aug-05 15:45N 54°12' E 012°02'0 0.0
2018-Aug-05 15:30N 54°12' E 012°02'0 0.0
2018-Aug-05 15:00N 54°12' E 012°02'0 0.0
2018-Aug-05 14:00N 54°12' E 012°02'0 0.0
2018-Aug-05 13:30N 54°12' E 012°02'0 0.0
2018-Aug-05 13:00N 54°12' E 012°02'0 0.0
2018-Aug-05 12:30N 54°12' E 012°02'0 0.1
2018-Aug-05 12:00N 54°12' E 012°02'0 0.0
2018-Aug-05 11:30N 54°12' E 012°02'0 0.2
2018-Aug-05 10:13N 54°13' E 012°02'1 2.8
2018-Aug-05 10:00N 54°13' E 012°02'2 4.8
2018-Aug-05 09:30N 54°16' E 012°01'3 5.5
2018-Aug-05 09:00N 54°18' E 011°60'2 4.2
2018-Aug-05 08:30N 54°19' E 011°57'25 5.9
2018-Aug-05 04:19N 54°30' E 011°18'2 6.7
2018-Aug-05 03:59N 54°31' E 011°15'3 6.3
2018-Aug-05 03:30N 54°32' E 011°10'3 7.2
2018-Aug-05 03:00N 54°33' E 011°04'3 6.0
2018-Aug-05 02:30N 54°36' E 011°02'3 6.4
2018-Aug-05 02:00N 54°39' E 011°00'4 7.3
2018-Aug-05 01:31N 54°42' E 010°58'3 6.6
2018-Aug-05 01:00N 54°45' E 010°56'3 6.5
2018-Aug-05 00:30N 54°48' E 010°54'3 6.6
2018-Aug-05 00:01N 54°51' E 010°54'4 7.7
2018-Aug-04 23:30N 54°55' E 010°54'  

Dump ship's entire track history